Home > Products > Valid Products > TAF

000
FTUS41 KPBZ 072336
TAFBVI
TAF
KBVI 072336Z 0800/0824 21005KT P6SM BKN120
     FM081700 14005KT P6SM -RA OVC035
     FM082000 16005KT 3SM -RASN OVC020
     FM082300 20005KT 1 1/2SM -SN BR OVC010
      AMD NOT SKED=



000
FTUS41 KPBZ 072336
TAFDUJ
TAF
KDUJ 072336Z 0800/0824 16005KT P6SM BKN250
     FM082000 14005KT 6SM -RASN OVC035
     FM082200 16005KT 2SM -SN OVC020=



000
FTUS41 KPBZ 072336
TAFLBE
TAF
KLBE 072336Z 0800/0824 19005KT P6SM BKN250
     FM081900 14005KT 6SM -RA OVC035
     FM082100 16005KT 3SM -RASN OVC025
     FM082300 20005KT 1 1/2SM -SN BR OVC015=



000
FTUS41 KPBZ 072336
TAFBVI
TAF
KBVI 072336Z 0800/0824 21005KT P6SM BKN120
     FM081700 14005KT P6SM -RA OVC035
     FM082000 16005KT 3SM -RASN OVC020
     FM082300 20005KT 1 1/2SM -SN BR OVC010
      AMD NOT SKED=



000
FTUS41 KPBZ 072336
TAFHLG
TAF
KHLG 072336Z 0800/0824 21005KT P6SM BKN120
     FM081600 14005KT P6SM -RA OVC035
     FM082000 16005KT 3SM -RASN OVC020
     FM082200 20005KT 1 1/2SM -SN BR OVC010=



000
FTUS41 KPBZ 072336
TAFPIT
TAF
KPIT 072336Z 0800/0906 19005KT P6SM BKN120
     FM081700 14005KT P6SM -RA OVC035
     FM082000 16005KT 3SM -RASN OVC020
     FM082300 20005KT 1 1/2SM -SN BR OVC010=



000
FTUS41 KPBZ 072336
TAFAGC
TAF
KAGC 072336Z 0800/0824 19005KT P6SM BKN120
     FM081700 14005KT P6SM -RA OVC035
     FM082000 16005KT 3SM -RASN OVC020
     FM082300 20005KT 1 1/2SM -SN BR OVC010=



000
FTUS41 KPBZ 072336
TAFMGW
TAF
KMGW 072336Z 0800/0824 19005KT P6SM BKN250
     FM081800 14005KT P6SM -RA OVC025
     FM082000 16005KT 3SM -RASN OVC020
     FM082200 20005KT 2SM -SN BR OVC015=



000
FTUS41 KPBZ 072336
TAFZZV
TAF
KZZV 072336Z 0800/0824 18005KT P6SM BKN120
     FM081000 16005KT 3SM -SNRA OVC020
     FM081200 16005KT 2SM -SN BR OVC008
     FM081800 24005KT 5SM -RASN BKN015=



000
FTUS41 KPBZ 072336
TAFAGC
TAF
KAGC 072336Z 0800/0824 19005KT P6SM BKN120
     FM081700 14005KT P6SM -RA OVC035
     FM082000 16005KT 3SM -RASN OVC020
     FM082300 20005KT 1 1/2SM -SN BR OVC010=



000
FTUS41 KPBZ 072336
TAFDUJ
TAF
KDUJ 072336Z 0800/0824 16005KT P6SM BKN250
     FM082000 14005KT 6SM -RASN OVC035
     FM082200 16005KT 2SM -SN OVC020=



000
FTUS41 KPBZ 072336
TAFHLG
TAF
KHLG 072336Z 0800/0824 21005KT P6SM BKN120
     FM081600 14005KT P6SM -RA OVC035
     FM082000 16005KT 3SM -RASN OVC020
     FM082200 20005KT 1 1/2SM -SN BR OVC010=



000
FTUS41 KPBZ 072336
TAFMGW
TAF
KMGW 072336Z 0800/0824 19005KT P6SM BKN250
     FM081800 14005KT P6SM -RA OVC025
     FM082000 16005KT 3SM -RASN OVC020
     FM082200 20005KT 2SM -SN BR OVC015=



000
FTUS41 KPBZ 072336
TAFPIT
TAF
KPIT 072336Z 0800/0906 19005KT P6SM BKN120
     FM081700 14005KT P6SM -RA OVC035
     FM082000 16005KT 3SM -RASN OVC020
     FM082300 20005KT 1 1/2SM -SN BR OVC010=



000
FTUS41 KPBZ 072336
TAFLBE
TAF
KLBE 072336Z 0800/0824 19005KT P6SM BKN250
     FM081900 14005KT 6SM -RA OVC035
     FM082100 16005KT 3SM -RASN OVC025
     FM082300 20005KT 1 1/2SM -SN BR OVC015=



000
FTUS41 KPBZ 072336
TAFZZV
TAF
KZZV 072336Z 0800/0824 18005KT P6SM BKN120
     FM081000 16005KT 3SM -SNRA OVC020
     FM081200 16005KT 2SM -SN BR OVC008
     FM081800 24005KT 5SM -RASN BKN015=



000
FTUS41 KPBZ 072108 AAA
TAFPIT
TAF AMD
KPIT 072108Z 0721/0824 22008KT P6SM SKC
     FM080000 16005KT P6SM BKN120
     FM081700 14005KT P6SM -RA OVC035
     FM082000 16005KT 3SM -RASN OVC020
     FM082300 20005KT 2SM -SN BR OVC010=



000
FTUS41 KPBZ 072108 AAA
TAFPIT
TAF AMD
KPIT 072108Z 0721/0824 22008KT P6SM SKC
     FM080000 16005KT P6SM BKN120
     FM081700 14005KT P6SM -RA OVC035
     FM082000 16005KT 3SM -RASN OVC020
     FM082300 20005KT 2SM -SN BR OVC010=



000
FTUS41 KPBZ 071757 CCA
TAFBVI
TAF COR
KBVI 071757Z 0718/0818 19008KT P6SM SKC
     FM080000 16005KT P6SM BKN120
     FM081700 14005KT P6SM -RA OVC035
      AMD NOT SKED=



000
FTUS41 KPBZ 071757 CCA
TAFBVI
TAF COR
KBVI 071757Z 0718/0818 19008KT P6SM SKC
     FM080000 16005KT P6SM BKN120
     FM081700 14005KT P6SM -RA OVC035
      AMD NOT SKED=



000
FTUS41 KPBZ 071723
TAFAGC
TAF
KAGC 071723Z 0718/0818 19008KT P6SM SKC
     FM080000 16005KT P6SM BKN120
     FM081700 14005KT P6SM -RA OVC035=



000
FTUS41 KPBZ 071723
TAFLBE
TAF
KLBE 071723Z 0718/0818 20008KT P6SM SKC
     FM080200 16005KT P6SM BKN120=



000
FTUS41 KPBZ 071723
TAFZZV
TAF
KZZV 071723Z 0718/0818 19008KT P6SM SKC
     FM072300 17005KT P6SM BKN120
     FM081000 16005KT 3SM -SNRA OVC020
     FM081200 16005KT 2SM -SN BR OVC008=



000
FTUS41 KPBZ 071723
TAFMGW
TAF
KMGW 071723Z 0718/0818 20005KT P6SM SCT250
     FM080300 15003KT P6SM BKN120
     FM081700 15008KT P6SM -RA OVC035=



000
FTUS41 KPBZ 071723
TAFDUJ
TAF
KDUJ 071723Z 0718/0818 22010KT P6SM SKC
     FM080200 16008KT P6SM BKN120=



000
FTUS41 KPBZ 071723
TAFBVI
TAF
KBVI 071723Z 0718/0818 19008KT P6SM SKC
     FM080000 16005KT P6SM BKN120
     FM081700 14005KT P6SM -RA OVC035=



000
FTUS41 KPBZ 071723
TAFHLG
TAF
KHLG 071723Z 0718/0818 19008KT P6SM SKC
     FM080000 16008KT P6SM BKN120
     FM081600 16008KT P6SM -RA OVC035=



000
FTUS41 KPBZ 071723
TAFPIT
TAF
KPIT 071723Z 0718/0824 19008KT P6SM SKC
     FM080000 16005KT P6SM BKN120
     FM081700 14005KT P6SM -RA OVC035
     FM082000 16005KT 3SM -RASN OVC020
     FM082300 20005KT 2SM -SN BR OVC010=



000
FTUS41 KPBZ 071723
TAFMGW
TAF
KMGW 071723Z 0718/0818 20005KT P6SM SCT250
     FM080300 15003KT P6SM BKN120
     FM081700 15008KT P6SM -RA OVC035=



000
FTUS41 KPBZ 071723
TAFZZV
TAF
KZZV 071723Z 0718/0818 19008KT P6SM SKC
     FM072300 17005KT P6SM BKN120
     FM081000 16005KT 3SM -SNRA OVC020
     FM081200 16005KT 2SM -SN BR OVC008=



000
FTUS41 KPBZ 071723
TAFDUJ
TAF
KDUJ 071723Z 0718/0818 22010KT P6SM SKC
     FM080200 16008KT P6SM BKN120=



000
FTUS41 KPBZ 071457 AAB
TAFPIT
TAF AMD
KPIT 071457Z 0715/0818 16005KT P6SM BKN060
     FM071800 19008KT P6SM SCT060
     FM080200 16005KT P6SM BKN120
     FM081500 14005KT P6SM -RASN OVC025=



000
FTUS41 KPBZ 071400 AAA
TAFZZV
TAF AMD
KZZV 071400Z 0714/0812 VRB03KT P6SM BKN060
     FM071800 20008KT P6SM SCT060
     FM080000 18005KT P6SM BKN100
     FM080900 16005KT 6SM -RASN OVC025=



000
FTUS41 KPBZ 071359 AAA
TAFAGC
TAF AMD
KAGC 071359Z 0714/0812 16005KT P6SM BKN050
     FM071800 19008KT P6SM SCT050
     FM080200 16005KT P6SM BKN120=



000
FTUS41 KPBZ 071358 AAA
TAFPIT
TAF AMD
KPIT 071358Z 0714/0818 16005KT P6SM BKN050
     FM071800 19008KT P6SM SCT050
     FM080200 16005KT P6SM BKN120
     FM081500 14005KT P6SM -RASN OVC025=



000
FTUS41 KPBZ 071340 AAA
TAFHLG
TAF AMD
KHLG 071340Z 0714/0812 16005KT P6SM BKN060
     FM071800 18008KT P6SM BKN150=



000
FTUS41 KPBZ 071340 AAA
TAFHLG
TAF AMD
KHLG 071340Z 0714/0812 16005KT P6SM BKN060
     FM071800 18008KT P6SM BKN150=



000
FTUS41 KPBZ 071120
TAFMGW
TAF
KMGW 071120Z 0712/0812 VRB03KT P6SM SKC
     FM071800 21006KT P6SM BKN250
     FM080400 VRB03KT P6SM BKN100=



000
FTUS41 KPBZ 071120
TAFPIT
TAF
KPIT 071120Z 0712/0818 VRB03KT P6SM SKC
     FM071800 19007G15KT P6SM BKN250
     FM080200 VRB04KT P6SM BKN120
     FM081200 14006KT 6SM -SHRASN OVC025=



000
FTUS41 KPBZ 071120
TAFDUJ
TAF
KDUJ 071120Z 0712/0812 22004KT P6SM SKC
     FM071700 20009G17KT P6SM BKN250
     FM080300 15006KT P6SM BKN100=



000
FTUS41 KPBZ 071120
TAFZZV
TAF
KZZV 071120Z 0712/0812 VRB03KT P6SM SKC
     FM071800 20008G16KT P6SM BKN250
     FM072300 18006KT P6SM BKN100
     FM080900 16005KT 6SM -SHRASN OVC025=



000
FTUS41 KPBZ 071120
TAFBVI
TAF
KBVI 071120Z 0712/0812 VRB03KT P6SM SKC
     FM071800 19008G15KT P6SM BKN250
     FM080200 VRB04KT P6SM BKN120=



000
FTUS41 KPBZ 071120
TAFAGC
TAF
KAGC 071120Z 0712/0812 20005KT P6SM SKC
     FM071800 20007G15KT P6SM BKN250
     FM080200 VRB04KT P6SM BKN120=



000
FTUS41 KPBZ 071120
TAFLBE
TAF
KLBE 071120Z 0712/0812 VRB03KT P6SM SKC
     FM071800 21007G15KT P6SM BKN250
     FM080400 VRB04KT P6SM BKN120=



000
FTUS41 KPBZ 071120
TAFHLG
TAF
KHLG 071120Z 0712/0812 20005KT P6SM SKC
     FM071800 20008G16KT P6SM BKN250
     FM080200 16006KT P6SM BKN120=



000
FTUS41 KPBZ 070855 AAA
TAFPIT
TAF AMD
KPIT 070855Z 0709/0812 VRB03KT P6SM SKC
     FM071800 19007G15KT P6SM BKN250
     FM080100 VRB04KT P6SM BKN100=



000
FTUS41 KPBZ 070855 AAA
TAFPIT
TAF AMD
KPIT 070855Z 0709/0812 VRB03KT P6SM SKC
     FM071800 19007G15KT P6SM BKN250
     FM080100 VRB04KT P6SM BKN100=



000
FTUS41 KPBZ 070529
TAFAGC
TAF
KAGC 070529Z 0706/0806 20005KT P6SM SKC
     FM071800 20007G15KT P6SM BKN250
     FM080100 VRB04KT P6SM BKN100=



000
FTUS41 KPBZ 070529
TAFBVI
TAF
KBVI 070529Z 0706/0806 VRB03KT P6SM SKC
     FM071800 19007G15KT P6SM BKN250
     FM080100 VRB04KT P6SM BKN100
      AMD NOT SKED=



000
FTUS41 KPBZ 070529
TAFLBE
TAF
KLBE 070529Z 0706/0806 VRB03KT P6SM SKC
     FM071800 19007G15KT P6SM BKN250
     FM080300 VRB04KT P6SM BKN100=



000
FTUS41 KPBZ 070529
TAFPIT
TAF
KPIT 070529Z 0706/0812 VRB03KT P6SM SKC
     FM071800 19007G15KT P6SM BKN250
     FM080100 VRB04KT P6SM BKN100=



000
FTUS41 KPBZ 070529
TAFHLG
TAF
KHLG 070529Z 0706/0806 20005KT P6SM SKC
     FM071800 20008G16KT P6SM BKN250
     FM080100 16006KT P6SM BKN100=



000
FTUS41 KPBZ 070529
TAFDUJ
TAF
KDUJ 070529Z 0706/0806 22004KT P6SM SKC
     FM071700 20009G17KT P6SM BKN250
     FM080200 15006KT P6SM BKN100=



000
FTUS41 KPBZ 070529
TAFZZV
TAF
KZZV 070529Z 0706/0806 VRB03KT P6SM SKC
     FM071800 20008G16KT P6SM BKN250
     FM072300 18006KT P6SM BKN100=



000
FTUS41 KPBZ 070529
TAFMGW
TAF
KMGW 070529Z 0706/0806 VRB03KT P6SM SKC
     FM071800 21006KT P6SM BKN250
     FM080300 VRB03KT P6SM BKN100=



000
FTUS41 KPBZ 070230 AAA
TAFPIT
TAF AMD
KPIT 070230Z 0703/0806 23006KT P6SM SKC
     FM071800 19007G15KT P6SM FEW050=



000
FTUS41 KPBZ 070230 AAA
TAFPIT
TAF AMD
KPIT 070230Z 0703/0806 23006KT P6SM SKC
     FM071800 19007G15KT P6SM FEW050=



000
FTUS41 KPBZ 062320
TAFPIT
TAF
KPIT 062320Z 0700/0806 23006KT P6SM SKC
     FM071800 19007G15KT P6SM FEW050=



000
FTUS41 KPBZ 062320
TAFLBE
TAF
KLBE 062320Z 0700/0724 23006KT P6SM SKC
     FM071800 19007G15KT P6SM FEW050=



000
FTUS41 KPBZ 062320
TAFBVI
TAF
KBVI 062320Z 0700/0724 23006KT P6SM SKC
     FM071800 19007G15KT P6SM FEW050=



000
FTUS41 KPBZ 062320
TAFZZV
TAF
KZZV 062320Z 0700/0724 VRB03KT P6SM SKC
     FM071800 19009G15KT P6SM SCT200=



000
FTUS41 KPBZ 062320
TAFDUJ
TAF
KDUJ 062320Z 0700/0724 24005KT P6SM SKC
     FM071800 19007G15KT P6SM SKC=



000
FTUS41 KPBZ 062320
TAFHLG
TAF
KHLG 062320Z 0700/0724 25006KT P6SM SKC
     FM071800 19007G15KT P6SM FEW050=



000
FTUS41 KPBZ 062320
TAFAGC
TAF
KAGC 062320Z 0700/0724 23006KT P6SM SKC
     FM071800 19007G15KT P6SM FEW050=



000
FTUS41 KPBZ 062320
TAFMGW
TAF
KMGW 062320Z 0700/0724 21005KT P6SM SKC=



000
FTUS41 KPBZ 062320
TAFDUJ
TAF
KDUJ 062320Z 0700/0724 24005KT P6SM SKC
     FM071800 19007G15KT P6SM SKC=



000
FTUS41 KPBZ 062320
TAFPIT
TAF
KPIT 062320Z 0700/0806 23006KT P6SM SKC
     FM071800 19007G15KT P6SM FEW050=



000
FTUS41 KPBZ 062320
TAFLBE
TAF
KLBE 062320Z 0700/0724 23006KT P6SM SKC
     FM071800 19007G15KT P6SM FEW050=



000
FTUS41 KPBZ 062320
TAFBVI
TAF
KBVI 062320Z 0700/0724 23006KT P6SM SKC
     FM071800 19007G15KT P6SM FEW050=



000
FTUS41 KPBZ 062320
TAFHLG
TAF
KHLG 062320Z 0700/0724 25006KT P6SM SKC
     FM071800 19007G15KT P6SM FEW050=



000
FTUS41 KPBZ 062320
TAFZZV
TAF
KZZV 062320Z 0700/0724 VRB03KT P6SM SKC
     FM071800 19009G15KT P6SM SCT200=



000
FTUS41 KPBZ 062320
TAFAGC
TAF
KAGC 062320Z 0700/0724 23006KT P6SM SKC
     FM071800 19007G15KT P6SM FEW050=



000
FTUS41 KPBZ 062320
TAFMGW
TAF
KMGW 062320Z 0700/0724 21005KT P6SM SKC=



000
FTUS41 KPBZ 062132 AAA
TAFPIT
TAF AMD
KPIT 062132Z 0622/0724 23008KT P6SM SCT250=



000
FTUS41 KPBZ 061726 AAA
TAFLBE
TAF AMD
KLBE 061726Z 0617/0718 23010G20KT P6SM SCT050
     FM062300 23008KT P6SM SCT250=



000
FTUS41 KPBZ 061726 AAA
TAFLBE
TAF AMD
KLBE 061726Z 0617/0718 23010G20KT P6SM SCT050
     FM062300 23008KT P6SM SCT250=



000
FTUS41 KPBZ 061725 CCA
TAFDUJ
TAF COR
KDUJ 061725Z 0618/0718 24010G20KT P6SM SKC
     FM062300 24008KT P6SM SCT250=



000
FTUS41 KPBZ 061725 CCA
TAFDUJ
TAF COR
KDUJ 061725Z 0618/0718 24010G20KT P6SM SKC
     FM062300 24008KT P6SM SCT250=



000
FTUS41 KPBZ 061720
TAFLBE
TAF
KLBE 061720Z 0618/0718 23008KT P6SM SCT250=



000
FTUS41 KPBZ 061720
TAFAGC
TAF
KAGC 061720Z 0618/0718 23008KT P6SM SCT250=



000
FTUS41 KPBZ 061720
TAFDUJ
TAF
KDUJ 061720Z 0618/0718 24010KT P6SM SCT250=



000
FTUS41 KPBZ 061720
TAFMGW
TAF
KMGW 061720Z 0618/0718 22005KT P6SM SCT250=



000
FTUS41 KPBZ 061720
TAFBVI
TAF
KBVI 061720Z 0618/0718 23008KT P6SM SCT250=



000
FTUS41 KPBZ 061720
TAFZZV
TAF
KZZV 061720Z 0618/0718 23008KT P6SM SCT250=



000
FTUS41 KPBZ 061720
TAFHLG
TAF
KHLG 061720Z 0618/0718 23008KT P6SM SCT250=



000
FTUS41 KPBZ 061720
TAFZZV
TAF
KZZV 061720Z 0618/0718 23008KT P6SM SCT250=



000
FTUS41 KPBZ 061720
TAFBVI
TAF
KBVI 061720Z 0618/0718 23008KT P6SM SCT250=



000
FTUS41 KPBZ 061720
TAFMGW
TAF
KMGW 061720Z 0618/0718 22005KT P6SM SCT250=



000
FTUS41 KPBZ 061720
TAFAGC
TAF
KAGC 061720Z 0618/0718 23008KT P6SM SCT250=



000
FTUS41 KPBZ 061720
TAFDUJ
TAF
KDUJ 061720Z 0618/0718 24010KT P6SM SCT250=



000
FTUS41 KPBZ 061720
TAFLBE
TAF
KLBE 061720Z 0618/0718 23008KT P6SM SCT250=



000
FTUS41 KPBZ 061720
TAFPIT
TAF
KPIT 061720Z 0618/0724 23008KT P6SM SCT250=



000
FTUS41 KPBZ 061720
TAFHLG
TAF
KHLG 061720Z 0618/0718 23008KT P6SM SCT250=



000
FTUS41 KPBZ 061720
TAFPIT
TAF
KPIT 061720Z 0618/0724 23008KT P6SM SCT250=



000
FTUS41 KPBZ 061459 AAA
TAFDUJ
TAF AMD
KDUJ 061459Z 0615/0712 22010KT P6SM BKN060
     FM061700 24008KT P6SM SCT060=



000
FTUS41 KPBZ 061458 AAA
TAFZZV
TAF AMD
KZZV 061458Z 0615/0712 23005KT P6SM SCT080=



000
FTUS41 KPBZ 061457 AAA
TAFMGW
TAF AMD
KMGW 061457Z 0615/0712 22003KT P6SM SCT080=



000
FTUS41 KPBZ 061457 AAA
TAFHLG
TAF AMD
KHLG 061457Z 0615/0712 23005KT P6SM SCT080=



000
FTUS41 KPBZ 061456 AAA
TAFLBE
TAF AMD
KLBE 061456Z 0615/0712 23005KT P6SM BKN060
     FM061700 23008KT P6SM SCT080=



000
FTUS41 KPBZ 061453 AAA
TAFBVI
TAF AMD
KBVI 061453Z 0615/0712 23005KT P6SM SCT080=



000
FTUS41 KPBZ 061453 AAA
TAFAGC
TAF AMD
KAGC 061453Z 0615/0712 23005KT P6SM SCT080=



000
FTUS41 KPBZ 061452 AAA
TAFPIT
TAF AMD
KPIT 061452Z 0615/0718 23005KT P6SM SCT080=



000
FTUS41 KPBZ 061132
TAFAGC
TAF
KAGC 061132Z 0612/0712 19007KT P6SM BKN060
     FM061600 24010KT P6SM SCT060 BKN150
     FM070100 VRB03KT P6SM SCT200=



000
FTUS41 KPBZ 061132
TAFHLG
TAF
KHLG 061132Z 0612/0712 19007KT P6SM BKN060
     FM061400 23009KT P6SM SCT060 BKN150
     FM070100 22004KT P6SM SCT200=



000
FTUS41 KPBZ 061132
TAFBVI
TAF
KBVI 061132Z 0612/0712 20005KT P6SM BKN060
     FM061500 24009KT P6SM SCT060 BKN150
     FM070100 VRB03KT P6SM SCT200=



000
FTUS41 KPBZ 061132
TAFZZV
TAF
KZZV 061132Z 0612/0712 19005KT P6SM BKN120
     FM061500 24007KT P6SM SCT050 BKN150
     FM070000 VRB03KT P6SM SCT200=



000
FTUS41 KPBZ 061132
TAFMGW
TAF
KMGW 061132Z 0612/0712 VRB03KT P6SM BKN120
     FM061800 24007KT P6SM SCT050 BKN150
     FM070100 VRB04KT P6SM SCT200=



000
FTUS41 KPBZ 061132
TAFPIT
TAF
KPIT 061132Z 0612/0718 20005KT P6SM BKN060
     FM061500 24010KT P6SM SCT060 BKN150
     FM070100 VRB03KT P6SM SCT200=



000
FTUS41 KPBZ 061132
TAFLBE
TAF
KLBE 061132Z 0612/0712 21006KT P6SM BKN060
     FM061600 24010KT P6SM SCT060 BKN150
     FM070100 VRB04KT P6SM SCT200=



000
FTUS41 KPBZ 061132
TAFDUJ
TAF
KDUJ 061132Z 0612/0712 20007KT P6SM BKN060
     FM061700 24010G17KT P6SM SCT050 BKN120
     FM070100 24005KT P6SM SCT200=



000
FTUS41 KPBZ 061132
TAFDUJ
TAF
KDUJ 061132Z 0612/0712 20007KT P6SM BKN060
     FM061700 24010G17KT P6SM SCT050 BKN120
     FM070100 24005KT P6SM SCT200=



000
FTUS41 KPBZ 061132
TAFAGC
TAF
KAGC 061132Z 0612/0712 19007KT P6SM BKN060
     FM061600 24010KT P6SM SCT060 BKN150
     FM070100 VRB03KT P6SM SCT200=



000
FTUS41 KPBZ 061132
TAFLBE
TAF
KLBE 061132Z 0612/0712 21006KT P6SM BKN060
     FM061600 24010KT P6SM SCT060 BKN150
     FM070100 VRB04KT P6SM SCT200=



000
FTUS41 KPBZ 061132
TAFHLG
TAF
KHLG 061132Z 0612/0712 19007KT P6SM BKN060
     FM061400 23009KT P6SM SCT060 BKN150
     FM070100 22004KT P6SM SCT200=



000
FTUS41 KPBZ 061132
TAFPIT
TAF
KPIT 061132Z 0612/0718 20005KT P6SM BKN060
     FM061500 24010KT P6SM SCT060 BKN150
     FM070100 VRB03KT P6SM SCT200=



000
FTUS41 KPBZ 061132
TAFMGW
TAF
KMGW 061132Z 0612/0712 VRB03KT P6SM BKN120
     FM061800 24007KT P6SM SCT050 BKN150
     FM070100 VRB04KT P6SM SCT200=



000
FTUS41 KPBZ 061132
TAFZZV
TAF
KZZV 061132Z 0612/0712 19005KT P6SM BKN120
     FM061500 24007KT P6SM SCT050 BKN150
     FM070000 VRB03KT P6SM SCT200=



000
FTUS41 KPBZ 061132
TAFBVI
TAF
KBVI 061132Z 0612/0712 20005KT P6SM BKN060
     FM061500 24009KT P6SM SCT060 BKN150
     FM070100 VRB03KT P6SM SCT200=



000
FTUS41 KPBZ 060909 AAA
TAFPIT
TAF AMD
KPIT 060909Z 0609/0712 18004KT P6SM BKN050
     FM061600 24010KT P6SM SCT050 BKN120
     FM070100 VRB03KT P6SM SCT200=



000
FTUS41 KPBZ 060909 AAA
TAFPIT
TAF AMD
KPIT 060909Z 0609/0712 18004KT P6SM BKN050
     FM061600 24010KT P6SM SCT050 BKN120
     FM070100 VRB03KT P6SM SCT200=



000
FTUS41 KPBZ 060535
TAFPIT
TAF
KPIT 060535Z 0606/0712 18004KT P6SM BKN050
     FM061600 24010KT P6SM SCT050 BKN120
     FM070100 VRB03KT P6SM SCT200=



000
FTUS41 KPBZ 060535
TAFDUJ
TAF
KDUJ 060535Z 0606/0706 18005KT P6SM BKN060
     FM061800 24010G17KT P6SM SCT050 BKN120
     FM070100 25005KT P6SM SCT200=



000
FTUS41 KPBZ 060535
TAFBVI
TAF
KBVI 060535Z 0606/0706 21004KT P6SM BKN050
     FM061600 24010KT P6SM SCT050 BKN120
     FM070100 VRB03KT P6SM SCT200
      AMD NOT SKED=



000
FTUS41 KPBZ 060535
TAFAGC
TAF
KAGC 060535Z 0606/0706 18005KT P6SM BKN050
     FM061600 24010KT P6SM SCT050 BKN120
     FM070100 VRB03KT P6SM SCT200=



000
FTUS41 KPBZ 060535
TAFZZV
TAF
KZZV 060535Z 0606/0706 19007KT P6SM BKN050
     FM061500 24007KT P6SM SCT050 BKN120
     FM070000 VRB03KT P6SM SCT200=



000
FTUS41 KPBZ 060535
TAFBVI
TAF
KBVI 060535Z 0606/0706 21004KT P6SM BKN050
     FM061600 24010KT P6SM SCT050 BKN120
     FM070100 VRB03KT P6SM SCT200
      AMD NOT SKED=



000
FTUS41 KPBZ 060535
TAFDUJ
TAF
KDUJ 060535Z 0606/0706 18005KT P6SM BKN060
     FM061800 24010G17KT P6SM SCT050 BKN120
     FM070100 25005KT P6SM SCT200=



000
FTUS41 KPBZ 060535
TAFMGW
TAF
KMGW 060535Z 0606/0706 VRB03KT P6SM BKN200
     FM060800 VRB03KT P6SM BKN040
     FM061800 24010KT P6SM SCT040 BKN120
     FM070100 VRB04KT P6SM SCT200=



000
FTUS41 KPBZ 060535
TAFLBE
TAF
KLBE 060535Z 0606/0706 VRB03KT P6SM BKN200
     FM060800 VRB03KT P6SM BKN040
     FM061800 24010KT P6SM SCT040 BKN120
     FM070100 VRB04KT P6SM SCT200=



000
FTUS41 KPBZ 060535
TAFHLG
TAF
KHLG 060535Z 0606/0706 19006KT P6SM BKN060
     FM061600 23010KT P6SM SCT050 BKN120
     FM070100 22004KT P6SM SCT200=



000
FTUS41 KPBZ 060535
TAFZZV
TAF
KZZV 060535Z 0606/0706 19007KT P6SM BKN050
     FM061500 24007KT P6SM SCT050 BKN120
     FM070000 VRB03KT P6SM SCT200=



000
FTUS41 KPBZ 060535
TAFLBE
TAF
KLBE 060535Z 0606/0706 VRB03KT P6SM BKN200
     FM060800 VRB03KT P6SM BKN040
     FM061800 24010KT P6SM SCT040 BKN120
     FM070100 VRB04KT P6SM SCT200=



000
FTUS41 KPBZ 060535
TAFAGC
TAF
KAGC 060535Z 0606/0706 18005KT P6SM BKN050
     FM061600 24010KT P6SM SCT050 BKN120
     FM070100 VRB03KT P6SM SCT200=



000
FTUS41 KPBZ 060535
TAFHLG
TAF
KHLG 060535Z 0606/0706 19006KT P6SM BKN060
     FM061600 23010KT P6SM SCT050 BKN120
     FM070100 22004KT P6SM SCT200=



000
FTUS41 KPBZ 060535
TAFPIT
TAF
KPIT 060535Z 0606/0712 18004KT P6SM BKN050
     FM061600 24010KT P6SM SCT050 BKN120
     FM070100 VRB03KT P6SM SCT200=



000
FTUS41 KPBZ 060535
TAFMGW
TAF
KMGW 060535Z 0606/0706 VRB03KT P6SM BKN200
     FM060800 VRB03KT P6SM BKN040
     FM061800 24010KT P6SM SCT040 BKN120
     FM070100 VRB04KT P6SM SCT200=



000
FTUS41 KPBZ 060253 AAA
TAFZZV
TAF AMD
KZZV 060253Z 0603/0624 VRB03KT P6SM BKN060
     FM060500 20003KT P6SM BKN040
     FM061400 24006KT P6SM SCT025 SCT070=



000
FTUS41 KPBZ 060253 AAA
TAFZZV
TAF AMD
KZZV 060253Z 0603/0624 VRB03KT P6SM BKN060
     FM060500 20003KT P6SM BKN040
     FM061400 24006KT P6SM SCT025 SCT070=



000
FTUS41 KPBZ 060251 AAA
TAFPIT
TAF AMD
KPIT 060251Z 0603/0706 VRB03KT P6SM SCT200
     FM060600 20004KT P6SM BKN040
     FM061600 24010KT P6SM SCT035=



000
FTUS41 KPBZ 060251 AAA
TAFPIT
TAF AMD
KPIT 060251Z 0603/0706 VRB03KT P6SM SCT200
     FM060600 20004KT P6SM BKN040
     FM061600 24010KT P6SM SCT035=



000
FTUS41 KPBZ 052344
TAFPIT
TAF
KPIT 052344Z 0600/0706 VRB03KT P6SM SCT200
     FM060600 20004KT P6SM BKN040
     FM061600 24010KT P6SM SCT035=



000
FTUS41 KPBZ 052344
TAFLBE
TAF
KLBE 052344Z 0600/0624 29005KT P6SM SCT200
     FM061000 20003KT P6SM BKN040
     FM061600 24010KT P6SM SCT035=



000
FTUS41 KPBZ 052344
TAFMGW
TAF
KMGW 052344Z 0600/0624 VRB03KT P6SM SCT200
     FM061200 22007KT P6SM BKN050=



000
FTUS41 KPBZ 052344
TAFDUJ
TAF
KDUJ 052344Z 0600/0624 29005KT P6SM SCT035
     FM060600 20003KT P6SM BKN040
     FM061300 23010KT P6SM BKN025
     FM061900 24010G15KT P6SM BKN035=



000
FTUS41 KPBZ 052344
TAFZZV
TAF
KZZV 052344Z 0600/0624 VRB03KT P6SM SCT200
     FM060500 20003KT P6SM BKN040
     FM061400 24006KT P6SM SCT025 SCT070=



000
FTUS41 KPBZ 052344
TAFHLG
TAF
KHLG 052344Z 0600/0624 26004KT P6SM SCT200
     FM060600 20003KT P6SM BKN040
     FM061500 24010KT P6SM SCT035 SCT070=



000
FTUS41 KPBZ 052344
TAFAGC
TAF
KAGC 052344Z 0600/0624 28003KT P6SM SCT200
     FM060700 20004KT P6SM BKN040
     FM061600 24010KT P6SM SCT035=



000
FTUS41 KPBZ 052344
TAFBVI
TAF
KBVI 052344Z 0600/0624 VRB03KT P6SM SCT200
     FM060600 20004KT P6SM BKN040
     FM061500 24010KT P6SM SCT035=



000
FTUS41 KPBZ 052344
TAFHLG
TAF
KHLG 052344Z 0600/0624 26004KT P6SM SCT200
     FM060600 20003KT P6SM BKN040
     FM061500 24010KT P6SM SCT035 SCT070=



000
FTUS41 KPBZ 052344
TAFZZV
TAF
KZZV 052344Z 0600/0624 VRB03KT P6SM SCT200
     FM060500 20003KT P6SM BKN040
     FM061400 24006KT P6SM SCT025 SCT070=



000
FTUS41 KPBZ 052344
TAFLBE
TAF
KLBE 052344Z 0600/0624 29005KT P6SM SCT200
     FM061000 20003KT P6SM BKN040
     FM061600 24010KT P6SM SCT035=



000
FTUS41 KPBZ 052344
TAFAGC
TAF
KAGC 052344Z 0600/0624 28003KT P6SM SCT200
     FM060700 20004KT P6SM BKN040
     FM061600 24010KT P6SM SCT035=



000
FTUS41 KPBZ 052344
TAFMGW
TAF
KMGW 052344Z 0600/0624 VRB03KT P6SM SCT200
     FM061200 22007KT P6SM BKN050=



000
FTUS41 KPBZ 052344
TAFBVI
TAF
KBVI 052344Z 0600/0624 VRB03KT P6SM SCT200
     FM060600 20004KT P6SM BKN040
     FM061500 24010KT P6SM SCT035=



000
FTUS41 KPBZ 052344
TAFPIT
TAF
KPIT 052344Z 0600/0706 VRB03KT P6SM SCT200
     FM060600 20004KT P6SM BKN040
     FM061600 24010KT P6SM SCT035=



000
FTUS41 KPBZ 052344
TAFDUJ
TAF
KDUJ 052344Z 0600/0624 29005KT P6SM SCT035
     FM060600 20003KT P6SM BKN040
     FM061300 23010KT P6SM BKN025
     FM061900 24010G15KT P6SM BKN035=



000
FTUS41 KPBZ 052103 AAA
TAFPIT
TAF AMD
KPIT 052103Z 0521/0624 32008KT P6SM SCT045
     FM060000 VRB03KT P6SM SCT200
     FM060600 20004KT P6SM BKN040
     FM061600 24010KT P6SM SCT035=



000
FTUS41 KPBZ 051904 AAA
TAFHLG
TAF AMD
KHLG 051904Z 0519/0618 27006KT P6SM SCT035
     FM060000 24003KT P6SM SCT250
     FM060600 20003KT P6SM BKN050
     FM061500 24010KT P6SM SCT035=



000
FTUS41 KPBZ 051904 AAA
TAFBVI
TAF AMD
KBVI 051904Z 0519/0618 27006KT P6SM SCT035
     FM060000 24003KT P6SM SCT250
     FM060500 20003KT P6SM BKN050
     FM061500 24010KT P6SM SCT035=



000
FTUS41 KPBZ 051720
TAFLBE
TAF
KLBE 051720Z 0518/0618 28010KT P6SM BKN030
     FM051900 29008KT P6SM SCT035
     FM060000 24003KT P6SM SCT250
     FM060900 20003KT P6SM SCT050
     FM061500 24010KT P6SM SCT035=



000
FTUS41 KPBZ 051720
TAFBVI
TAF
KBVI 051720Z 0518/0618 27006KT P6SM FEW030
     FM060000 24003KT P6SM SCT250
     FM060500 20003KT P6SM BKN050
     FM061500 24010KT P6SM SCT035=



000
FTUS41 KPBZ 051720
TAFLBE
TAF
KLBE 051720Z 0518/0618 28010KT P6SM BKN030
     FM051900 29008KT P6SM SCT035
     FM060000 24003KT P6SM SCT250
     FM060900 20003KT P6SM SCT050
     FM061500 24010KT P6SM SCT035=



000
FTUS41 KPBZ 051720
TAFPIT
TAF
KPIT 051720Z 0518/0624 30008KT P6SM FEW030
     FM060000 24003KT P6SM SCT250
     FM060600 20003KT P6SM BKN050
     FM061500 24010KT P6SM SCT035=



000
FTUS41 KPBZ 051720
TAFHLG
TAF
KHLG 051720Z 0518/0618 27006KT P6SM SKC
     FM060000 24003KT P6SM SCT250
     FM060600 20003KT P6SM BKN050
     FM061500 24010KT P6SM SCT035=



000
FTUS41 KPBZ 051720
TAFAGC
TAF
KAGC 051720Z 0518/0618 29008KT P6SM SCT030
     FM060000 24003KT P6SM SCT250
     FM060700 20003KT P6SM BKN050
     FM061500 24010KT P6SM SCT035=



000
FTUS41 KPBZ 051720
TAFPIT
TAF
KPIT 051720Z 0518/0624 30008KT P6SM FEW030
     FM060000 24003KT P6SM SCT250
     FM060600 20003KT P6SM BKN050
     FM061500 24010KT P6SM SCT035=



000
FTUS41 KPBZ 051720
TAFBVI
TAF
KBVI 051720Z 0518/0618 27006KT P6SM FEW030
     FM060000 24003KT P6SM SCT250
     FM060500 20003KT P6SM BKN050
     FM061500 24010KT P6SM SCT035=



000
FTUS41 KPBZ 051720
TAFDUJ
TAF
KDUJ 051720Z 0518/0618 28012KT P6SM BKN030
     FM052000 27010KT P6SM BKN035
     FM052200 27006KT P6SM SCT035
     FM060500 20003KT P6SM BKN050
     FM061500 24010KT P6SM BKN035=



000
FTUS41 KPBZ 051720
TAFHLG
TAF
KHLG 051720Z 0518/0618 27006KT P6SM SKC
     FM060000 24003KT P6SM SCT250
     FM060600 20003KT P6SM BKN050
     FM061500 24010KT P6SM SCT035=



000
FTUS41 KPBZ 051720
TAFAGC
TAF
KAGC 051720Z 0518/0618 29008KT P6SM SCT030
     FM060000 24003KT P6SM SCT250
     FM060700 20003KT P6SM BKN050
     FM061500 24010KT P6SM SCT035=



000
FTUS41 KPBZ 051720
TAFMGW
TAF
KMGW 051720Z 0518/0618 27005KT P6SM SKC
     FM060000 20002KT P6SM SCT250=



000
FTUS41 KPBZ 051720
TAFZZV
TAF
KZZV 051720Z 0518/0618 VRB03KT P6SM SKC
     FM060000 20003KT P6SM SCT250
     FM060500 20003KT P6SM BKN050
     FM061500 24006KT P6SM SCT025=



000
FTUS41 KPBZ 051720
TAFZZV
TAF
KZZV 051720Z 0518/0618 VRB03KT P6SM SKC
     FM060000 20003KT P6SM SCT250
     FM060500 20003KT P6SM BKN050
     FM061500 24006KT P6SM SCT025=



000
FTUS41 KPBZ 051720
TAFMGW
TAF
KMGW 051720Z 0518/0618 27005KT P6SM SKC
     FM060000 20002KT P6SM SCT250=



000
FTUS41 KPBZ 051720
TAFDUJ
TAF
KDUJ 051720Z 0518/0618 28012KT P6SM BKN030
     FM052000 27010KT P6SM BKN035
     FM052200 27006KT P6SM SCT035
     FM060500 20003KT P6SM BKN050
     FM061500 24010KT P6SM BKN035=



000
FTUS41 KPBZ 051502 AAA
TAFDUJ
TAF AMD
KDUJ 051502Z 0515/0612 31010KT P6SM BKN025
     FM052000 30008KT P6SM SCT040
     FM060300 26003KT P6SM SCT040=



000
FTUS41 KPBZ 051458 AAA
TAFPIT
TAF AMD
KPIT 051458Z 0515/0618 31010KT P6SM SCT040
     FM052100 24006KT P6SM SCT050
     FM060700 VRB03KT P6SM BKN080=



000
FTUS41 KPBZ 051458 AAA
TAFPIT
TAF AMD
KPIT 051458Z 0515/0618 31010KT P6SM SCT040
     FM052100 24006KT P6SM SCT050
     FM060700 VRB03KT P6SM BKN080=



000
FTUS41 KPBZ 051358 AAA
TAFLBE
TAF AMD
KLBE 051358Z 0514/0612 28008KT 1SM -SHSN OVC012
     FM051600 27008KT 5SM -SHSN BKN025
     FM051800 27008KT P6SM SCT050
     FM060800 VRB03KT P6SM BKN080=



000
FTUS41 KPBZ 051358 AAA
TAFLBE
TAF AMD
KLBE 051358Z 0514/0612 28008KT 1SM -SHSN OVC012
     FM051600 27008KT 5SM -SHSN BKN025
     FM051800 27008KT P6SM SCT050
     FM060800 VRB03KT P6SM BKN080=



000
FTUS41 KPBZ 051306 AAA
TAFAGC
TAF AMD
KAGC 051306Z 0513/0612 31010KT P6SM -SHSN BKN015 OVC035
     FM051500 26006KT P6SM SCT050
     FM060700 VRB03KT P6SM BKN080=



000
FTUS41 KPBZ 051306 AAA
TAFBVI
TAF AMD
KBVI 051306Z 0513/0612 28008KT P6SM -SHSN SCT015 OVC040
     FM051500 27008KT P6SM SCT050
     FM060600 VRB03KT P6SM BKN080=



000
FTUS41 KPBZ 051306 AAA
TAFAGC
TAF AMD
KAGC 051306Z 0513/0612 31010KT P6SM -SHSN BKN015 OVC035
     FM051500 26006KT P6SM SCT050
     FM060700 VRB03KT P6SM BKN080=



000
FTUS41 KPBZ 051306 AAA
TAFBVI
TAF AMD
KBVI 051306Z 0513/0612 28008KT P6SM -SHSN SCT015 OVC040
     FM051500 27008KT P6SM SCT050
     FM060600 VRB03KT P6SM BKN080=



000
FTUS41 KPBZ 051134
TAFPIT
TAF
KPIT 051134Z 0512/0618 30005KT P6SM -SN BKN015 BKN035
     FM051300 29008KT P6SM BKN040
     FM051700 24006KT P6SM SCT050
     FM060700 VRB03KT P6SM BKN080=



000
FTUS41 KPBZ 051134
TAFLBE
TAF
KLBE 051134Z 0512/0612 28006KT P6SM -SHSN BKN025
     FM051700 27008KT P6SM SCT050
     FM060800 VRB03KT P6SM BKN080=



000
FTUS41 KPBZ 051134
TAFBVI
TAF
KBVI 051134Z 0512/0612 28008KT P6SM -SHSN OVC015
     FM051500 27008KT P6SM SCT050
     FM060600 VRB03KT P6SM BKN080=



000
FTUS41 KPBZ 051134
TAFZZV
TAF
KZZV 051134Z 0512/0612 28007KT P6SM SKC
     FM052200 VRB03KT P6SM SCT050=



000
FTUS41 KPBZ 051134
TAFAGC
TAF
KAGC 051134Z 0512/0612 31012KT P6SM -SHSN BKN020 OVC035
     FM051500 26006KT P6SM SCT050
     FM060700 VRB03KT P6SM BKN080=



000
FTUS41 KPBZ 051134
TAFMGW
TAF
KMGW 051134Z 0512/0612 30006KT P6SM OVC035
     FM051500 27005KT P6SM SCT050=



000
FTUS41 KPBZ 051134
TAFPIT
TAF
KPIT 051134Z 0512/0618 30005KT P6SM -SN BKN015 BKN035
     FM051300 29008KT P6SM BKN040
     FM051700 24006KT P6SM SCT050
     FM060700 VRB03KT P6SM BKN080=



000
FTUS41 KPBZ 051134
TAFDUJ
TAF
KDUJ 051134Z 0512/0612 31012KT P6SM -SHSN OVC015
     FM051400 29006KT P6SM BKN025
     FM052000 26003KT P6SM SCT040=



000
FTUS41 KPBZ 051134
TAFHLG
TAF
KHLG 051134Z 0512/0612 30010KT P6SM BKN025
     FM051400 27008KT P6SM SCT050
     FM060500 VRB03KT P6SM BKN080=



000
FTUS41 KPBZ 051134
TAFLBE
TAF
KLBE 051134Z 0512/0612 28006KT P6SM -SHSN BKN025
     FM051700 27008KT P6SM SCT050
     FM060800 VRB03KT P6SM BKN080=



000
FTUS41 KPBZ 051134
TAFBVI
TAF
KBVI 051134Z 0512/0612 28008KT P6SM -SHSN OVC015
     FM051500 27008KT P6SM SCT050
     FM060600 VRB03KT P6SM BKN080=



000
FTUS41 KPBZ 051134
TAFMGW
TAF
KMGW 051134Z 0512/0612 30006KT P6SM OVC035
     FM051500 27005KT P6SM SCT050=



000
FTUS41 KPBZ 051134
TAFZZV
TAF
KZZV 051134Z 0512/0612 28007KT P6SM SKC
     FM052200 VRB03KT P6SM SCT050=



000
FTUS41 KPBZ 051134
TAFHLG
TAF
KHLG 051134Z 0512/0612 30010KT P6SM BKN025
     FM051400 27008KT P6SM SCT050
     FM060500 VRB03KT P6SM BKN080=



000
FTUS41 KPBZ 051134
TAFDUJ
TAF
KDUJ 051134Z 0512/0612 31012KT P6SM -SHSN OVC015
     FM051400 29006KT P6SM BKN025
     FM052000 26003KT P6SM SCT040=



000
FTUS41 KPBZ 051134
TAFAGC
TAF
KAGC 051134Z 0512/0612 31012KT P6SM -SHSN BKN020 OVC035
     FM051500 26006KT P6SM SCT050
     FM060700 VRB03KT P6SM BKN080=



000
FTUS41 KPBZ 051104 AAB
TAFAGC
TAF AMD
KAGC 051104Z 0511/0606 31012KT P6SM -SHSN BKN020 OVC035
     FM051500 26006KT P6SM SCT050=



000
FTUS41 KPBZ 051104 AAB
TAFAGC
TAF AMD
KAGC 051104Z 0511/0606 31012KT P6SM -SHSN BKN020 OVC035
     FM051500 26006KT P6SM SCT050=



000
FTUS41 KPBZ 051103 AAB
TAFHLG
TAF AMD
KHLG 051103Z 0511/0606 30010KT P6SM BKN025
     FM051400 27008KT P6SM SCT050=



000
FTUS41 KPBZ 051103 AAB
TAFHLG
TAF AMD
KHLG 051103Z 0511/0606 30010KT P6SM BKN025
     FM051400 27008KT P6SM SCT050=



000
FTUS41 KPBZ 051102 AAB
TAFPIT
TAF AMD
KPIT 051102Z 0511/0612 30005KT P6SM -SN BKN015 BKN035
     FM051300 29008KT P6SM BKN040
     FM051700 26006KT P6SM SCT050
     FM060700 VRB03KT P6SM BKN080=



000
FTUS41 KPBZ 051102 AAB
TAFPIT
TAF AMD
KPIT 051102Z 0511/0612 30005KT P6SM -SN BKN015 BKN035
     FM051300 29008KT P6SM BKN040
     FM051700 26006KT P6SM SCT050
     FM060700 VRB03KT P6SM BKN080=



000
FTUS41 KPBZ 050904 AAA
TAFDUJ
TAF AMD
KDUJ 050904Z 0509/0606 31012KT P6SM -SHSN OVC015
     FM051400 29006KT P6SM BKN025
     FM052000 26003KT P6SM SCT040=



000
FTUS41 KPBZ 050902 AAA
TAFZZV
TAF AMD
KZZV 050902Z 0509/0606 30007KT P6SM SKC
     FM052200 VRB03KT P6SM SCT050=



000
FTUS41 KPBZ 050900 AAA
TAFHLG
TAF AMD
KHLG 050900Z 0509/0606 30007KT P6SM OVC040
     FM051400 27008KT P6SM SCT050=



000
FTUS41 KPBZ 050900 AAA
TAFLBE
TAF AMD
KLBE 050900Z 0509/0606 28006KT P6SM -SHSN BKN025
     FM051700 29008KT P6SM SCT050=



000
FTUS41 KPBZ 050859 AAA
TAFAGC
TAF AMD
KAGC 050859Z 0509/0606 30007KT P6SM -SHSN OVC035
     FM051700 26006KT P6SM SCT050=



000
FTUS41 KPBZ 050856 AAA
TAFPIT
TAF AMD
KPIT 050856Z 0509/0612 30005KT P6SM -SN BKN035
     FM051300 29008KT P6SM BKN040
     FM051700 26006KT P6SM SCT050
     FM060700 VRB03KT P6SM BKN080=



000
FTUS41 KPBZ 050536
TAFLBE
TAF
KLBE 050536Z 0506/0606 28006KT P6SM -SHSN BKN025
     FM051700 29008KT P6SM BKN050
     FM060500 VRB03KT P6SM BKN080=



000
FTUS41 KPBZ 050536
TAFDUJ
TAF
KDUJ 050536Z 0506/0606 29004KT 3SM -SHSN BKN015
     FM051400 30006KT P6SM BKN025
     FM052000 26003KT P6SM SCT040=



000
FTUS41 KPBZ 050536
TAFZZV
TAF
KZZV 050536Z 0506/0606 30008KT P6SM BKN035
     FM051300 28007KT P6SM SCT050=



000
FTUS41 KPBZ 050536
TAFAGC
TAF
KAGC 050536Z 0506/0606 30007KT P6SM -SHSN OVC035
     FM051300 29008KT P6SM BKN050
     FM060500 VRB03KT P6SM BKN080=



000
FTUS41 KPBZ 050536
TAFAGC
TAF
KAGC 050536Z 0506/0606 30007KT P6SM -SHSN OVC035
     FM051300 29008KT P6SM BKN050
     FM060500 VRB03KT P6SM BKN080=



000
FTUS41 KPBZ 050536
TAFLBE
TAF
KLBE 050536Z 0506/0606 28006KT P6SM -SHSN BKN025
     FM051700 29008KT P6SM BKN050
     FM060500 VRB03KT P6SM BKN080=



000
FTUS41 KPBZ 050536
TAFZZV
TAF
KZZV 050536Z 0506/0606 30008KT P6SM BKN035
     FM051300 28007KT P6SM SCT050=



000
FTUS41 KPBZ 050536
TAFBVI
TAF
KBVI 050536Z 0506/0606 28008KT P6SM -SHSN OVC035
     FM051500 29008KT P6SM SCT050
     FM060500 VRB03KT P6SM BKN080
      AMD NOT SKED=



000
FTUS41 KPBZ 050536
TAFHLG
TAF
KHLG 050536Z 0506/0606 27010KT P6SM -SHSN BKN025
     FM051000 28008KT P6SM BKN035
     FM051400 29008KT P6SM SCT050=



000
FTUS41 KPBZ 050536
TAFPIT
TAF
KPIT 050536Z 0506/0612 30005KT P6SM -SN BKN035
     FM051300 29008KT P6SM BKN050
     FM060500 VRB03KT P6SM BKN080=



000
FTUS41 KPBZ 050536
TAFDUJ
TAF
KDUJ 050536Z 0506/0606 29004KT 3SM -SHSN BKN015
     FM051400 30006KT P6SM BKN025
     FM052000 26003KT P6SM SCT040=



000
FTUS41 KPBZ 050536
TAFMGW
TAF
KMGW 050536Z 0506/0606 30006KT P6SM SCT025 OVC035
     FM051500 29008KT P6SM SCT050=



000
FTUS41 KPBZ 050536
TAFPIT
TAF
KPIT 050536Z 0506/0612 30005KT P6SM -SN BKN035
     FM051300 29008KT P6SM BKN050
     FM060500 VRB03KT P6SM BKN080=



000
FTUS41 KPBZ 050536
TAFHLG
TAF
KHLG 050536Z 0506/0606 27010KT P6SM -SHSN BKN025
     FM051000 28008KT P6SM BKN035
     FM051400 29008KT P6SM SCT050=



000
FTUS41 KPBZ 050536
TAFMGW
TAF
KMGW 050536Z 0506/0606 30006KT P6SM SCT025 OVC035
     FM051500 29008KT P6SM SCT050=



000
FTUS41 KPBZ 050536
TAFBVI
TAF
KBVI 050536Z 0506/0606 28008KT P6SM -SHSN OVC035
     FM051500 29008KT P6SM SCT050
     FM060500 VRB03KT P6SM BKN080
      AMD NOT SKED=



000
FTUS41 KPBZ 050518 AAA
TAFHLG
TAF AMD
KHLG 050518Z 0505/0524 27008KT 2SM -SHSN BR BKN015
     FM050700 28008KT P6SM BKN025
     FM051500 29008KT P6SM SCT250=



000
FTUS41 KPBZ 050518 AAA
TAFHLG
TAF AMD
KHLG 050518Z 0505/0524 27008KT 2SM -SHSN BR BKN015
     FM050700 28008KT P6SM BKN025
     FM051500 29008KT P6SM SCT250=



000
FTUS41 KPBZ 050243 AAA
TAFLBE
TAF AMD
KLBE 050243Z 0503/0524 27007KT P6SM OVC045
     FM050500 31006KT P6SM OVC025
     FM051500 29008KT P6SM BKN050=



000
FTUS41 KPBZ 050243 AAA
TAFLBE
TAF AMD
KLBE 050243Z 0503/0524 27007KT P6SM OVC045
     FM050500 31006KT P6SM OVC025
     FM051500 29008KT P6SM BKN050=



000
FTUS41 KPBZ 050242 AAA
TAFAGC
TAF AMD
KAGC 050242Z 0503/0524 27007KT P6SM OVC035
     FM050500 31006KT P6SM OVC025
     FM051500 29008KT P6SM BKN050=



000
FTUS41 KPBZ 050242 AAA
TAFAGC
TAF AMD
KAGC 050242Z 0503/0524 27007KT P6SM OVC035
     FM050500 31006KT P6SM OVC025
     FM051500 29008KT P6SM BKN050=



000
FTUS41 KPBZ 050239 AAA
TAFPIT
TAF AMD
KPIT 050239Z 0503/0606 27008KT P6SM OVC025
     FM051500 29008KT P6SM BKN050=



000
FTUS41 KPBZ 050239 AAA
TAFPIT
TAF AMD
KPIT 050239Z 0503/0606 27008KT P6SM OVC025
     FM051500 29008KT P6SM BKN050=



    US Dept of Commerce
    National Oceanic and Atmospheric Administration
    National Weather Service
    1325 East West Highway
    Silver Spring, MD 20910
    Page Author: NWS Internet Services Team
Disclaimer
Information Quality
Credits
Glossary
Privacy Policy
Freedom of Information Act (FOIA)
About Us
Career Opportunities